sensor_id;sensor_type;location;lat;lon;timestamp;pressure;altitude;pressure_sealevel;temperature;humidity
16255;BME280;8235;52.198;9.904;2023-11-19T00:00:25;100194.81;;;6.46;100.00
16255;BME280;8235;52.198;9.904;2023-11-19T00:02:51;100193.81;;;6.49;100.00
16255;BME280;8235;52.198;9.904;2023-11-19T00:05:18;100175.97;;;6.52;100.00
16255;BME280;8235;52.198;9.904;2023-11-19T00:07:46;100174.09;;;6.54;100.00
16255;BME280;8235;52.198;9.904;2023-11-19T00:10:13;100172.16;;;6.58;100.00
16255;BME280;8235;52.198;9.904;2023-11-19T00:12:45;100166.00;;;6.57;100.00
16255;BME280;8235;52.198;9.904;2023-11-19T00:15:12;100173.69;;;6.62;100.00
16255;BME280;8235;52.198;9.904;2023-11-19T00:17:38;100175.31;;;6.65;100.00
16255;BME280;8235;52.198;9.904;2023-11-19T00:20:10;100165.41;;;6.68;100.00
16255;BME280;8235;52.198;9.904;2023-11-19T00:22:37;100154.66;;;6.71;100.00
16255;BME280;8235;52.198;9.904;2023-11-19T00:25:06;100144.00;;;6.73;100.00
16255;BME280;8235;52.198;9.904;2023-11-19T00:27:32;100142.97;;;6.75;100.00
16255;BME280;8235;52.198;9.904;2023-11-19T00:29:59;100137.59;;;6.77;100.00
16255;BME280;8235;52.198;9.904;2023-11-19T00:32:25;100131.44;;;6.76;100.00
16255;BME280;8235;52.198;9.904;2023-11-19T00:34:52;100118.91;;;6.80;100.00
16255;BME280;8235;52.198;9.904;2023-11-19T00:37:18;100115.19;;;6.82;100.00
16255;BME280;8235;52.198;9.904;2023-11-19T00:39:45;100106.25;;;6.85;100.00
16255;BME280;8235;52.198;9.904;2023-11-19T00:42:13;100086.78;;;6.86;100.00
16255;BME280;8235;52.198;9.904;2023-11-19T00:44:40;100101.72;;;6.87;100.00
16255;BME280;8235;52.198;9.904;2023-11-19T00:47:06;100098.22;;;6.86;100.00
16255;BME280;8235;52.198;9.904;2023-11-19T00:49:32;100098.22;;;6.86;100.00
16255;BME280;8235;52.198;9.904;2023-11-19T00:51:59;100094.53;;;6.89;100.00
16255;BME280;8235;52.198;9.904;2023-11-19T00:54:27;100111.19;;;6.91;100.00
16255;BME280;8235;52.198;9.904;2023-11-19T00:56:53;100104.09;;;6.91;100.00
16255;BME280;8235;52.198;9.904;2023-11-19T00:59:21;100101.38;;;6.93;100.00
16255;BME280;8235;52.198;9.904;2023-11-19T01:01:48;100111.19;;;6.91;100.00
16255;BME280;8235;52.198;9.904;2023-11-19T01:04:16;100106.66;;;6.93;100.00
16255;BME280;8235;52.198;9.904;2023-11-19T01:06:42;100097.03;;;6.92;100.00
16255;BME280;8235;52.198;9.904;2023-11-19T01:09:09;100098.72;;;6.93;100.00
16255;BME280;8235;52.198;9.904;2023-11-19T01:11:36;100073.13;;;6.93;100.00
16255;BME280;8235;52.198;9.904;2023-11-19T01:14:03;100073.97;;;6.94;100.00
16255;BME280;8235;52.198;9.904;2023-11-19T01:16:31;100074.75;;;6.96;100.00
16255;BME280;8235;52.198;9.904;2023-11-19T01:18:57;100065.75;;;6.99;100.00
16255;BME280;8235;52.198;9.904;2023-11-19T01:21:23;100057.91;;;6.97;100.00
16255;BME280;8235;52.198;9.904;2023-11-19T01:23:50;100050.69;;;6.99;100.00
16255;BME280;8235;52.198;9.904;2023-11-19T01:26:16;100046.84;;;7.05;100.00
16255;BME280;8235;52.198;9.904;2023-11-19T01:28:43;100039.69;;;7.07;100.00
16255;BME280;8235;52.198;9.904;2023-11-19T01:31:12;100036.69;;;7.13;100.00
16255;BME280;8235;52.198;9.904;2023-11-19T01:33:42;100034.59;;;7.18;100.00
16255;BME280;8235;52.198;9.904;2023-11-19T01:36:12;100047.94;;;7.16;100.00
16255;BME280;8235;52.198;9.904;2023-11-19T01:38:39;100053.34;;;7.15;100.00
16255;BME280;8235;52.198;9.904;2023-11-19T01:41:05;100044.34;;;7.17;100.00
16255;BME280;8235;52.198;9.904;2023-11-19T01:43:33;100030.16;;;7.18;100.00
16255;BME280;8235;52.198;9.904;2023-11-19T01:46:00;100037.25;;;7.18;100.00
16255;BME280;8235;52.198;9.904;2023-11-19T01:48:27;100032.53;;;7.23;100.00
16255;BME280;8235;52.198;9.904;2023-11-19T01:50:55;100027.81;;;7.28;100.00
16255;BME280;8235;52.198;9.904;2023-11-19T01:53:24;100018.53;;;7.35;100.00
16255;BME280;8235;52.198;9.904;2023-11-19T01:55:51;100003.50;;;7.36;100.00
16255;BME280;8235;52.198;9.904;2023-11-19T01:58:18;100010.59;;;7.35;100.00
16255;BME280;8235;52.198;9.904;2023-11-19T02:00:46;100012.22;;;7.38;100.00
16255;BME280;8235;52.198;9.904;2023-11-19T02:03:13;100005.13;;;7.38;100.00
16255;BME280;8235;52.198;9.904;2023-11-19T02:05:42;100005.31;;;7.35;100.00
16255;BME280;8235;52.198;9.904;2023-11-19T02:08:10;99991.88;;;7.38;100.00
16255;BME280;8235;52.198;9.904;2023-11-19T02:10:38;99998.63;;;7.44;100.00
16255;BME280;8235;52.198;9.904;2023-11-19T02:13:05;99979.03;;;7.46;100.00
16255;BME280;8235;52.198;9.904;2023-11-19T02:15:32;99990.31;;;7.50;100.00
16255;BME280;8235;52.198;9.904;2023-11-19T02:18:17;99987.66;;;7.50;100.00
16255;BME280;8235;52.198;9.904;2023-11-19T02:20:43;99976.47;;;7.59;100.00
16255;BME280;8235;52.198;9.904;2023-11-19T02:23:13;99959.53;;;7.61;100.00
16255;BME280;8235;52.198;9.904;2023-11-19T02:25:40;99965.22;;;7.70;100.00
16255;BME280;8235;52.198;9.904;2023-11-19T02:28:09;99976.38;;;7.75;100.00
16255;BME280;8235;52.198;9.904;2023-11-19T02:30:37;99965.94;;;7.72;100.00
16255;BME280;8235;52.198;9.904;2023-11-19T02:33:04;99960.38;;;7.76;100.00
16255;BME280;8235;52.198;9.904;2023-11-19T02:35:32;99963.03;;;7.76;100.00
16255;BME280;8235;52.198;9.904;2023-11-19T02:37:59;99966.34;;;7.80;100.00
16255;BME280;8235;52.198;9.904;2023-11-19T02:40:25;99959.25;;;7.80;100.00
16255;BME280;8235;52.198;9.904;2023-11-19T02:42:52;99947.69;;;7.81;100.00
16255;BME280;8235;52.198;9.904;2023-11-19T02:45:22;99934.34;;;7.83;100.00
16255;BME280;8235;52.198;9.904;2023-11-19T02:47:49;99941.16;;;7.87;100.00
16255;BME280;8235;52.198;9.904;2023-11-19T02:50:16;99951.44;;;7.91;100.00
16255;BME280;8235;52.198;9.904;2023-11-19T02:52:51;99925.78;;;7.92;100.00
16255;BME280;8235;52.198;9.904;2023-11-19T02:55:18;99918.50;;;7.95;100.00
16255;BME280;8235;52.198;9.904;2023-11-19T02:57:45;99910.53;;;7.95;100.00
16255;BME280;8235;52.198;9.904;2023-11-19T03:00:14;99899.66;;;8.00;100.00
16255;BME280;8235;52.198;9.904;2023-11-19T03:02:43;99894.91;;;8.05;100.00
16255;BME280;8235;52.198;9.904;2023-11-19T03:05:12;99897.34;;;8.08;100.00
16255;BME280;8235;52.198;9.904;2023-11-19T03:07:40;99905.84;;;8.13;100.00
16255;BME280;8235;52.198;9.904;2023-11-19T03:10:08;99887.94;;;8.17;100.00
16255;BME280;8235;52.198;9.904;2023-11-19T03:12:37;99877.97;;;8.20;100.00
16255;BME280;8235;52.198;9.904;2023-11-19T03:15:05;99868.41;;;8.18;100.00
16255;BME280;8235;52.198;9.904;2023-11-19T03:17:31;99865.25;;;8.25;100.00
16255;BME280;8235;52.198;9.904;2023-11-19T03:19:59;99857.19;;;8.27;100.00
16255;BME280;8235;52.198;9.904;2023-11-19T03:22:26;99844.50;;;8.32;100.00
16255;BME280;8235;52.198;9.904;2023-11-19T03:24:52;99856.81;;;8.33;100.00
16255;BME280;8235;52.198;9.904;2023-11-19T03:27:19;99845.53;;;8.29;100.00
16255;BME280;8235;52.198;9.904;2023-11-19T03:29:45;99854.94;;;8.35;100.00
16255;BME280;8235;52.198;9.904;2023-11-19T03:32:13;99858.13;;;8.40;100.00
16255;BME280;8235;52.198;9.904;2023-11-19T03:34:40;99865.75;;;8.45;100.00
16255;BME280;8235;52.198;9.904;2023-11-19T03:37:08;99866.31;;;8.50;100.00
16255;BME280;8235;52.198;9.904;2023-11-19T03:39:34;99870.13;;;8.46;100.00
16255;BME280;8235;52.198;9.904;2023-11-19T03:42:01;99871.91;;;8.45;100.00
16255;BME280;8235;52.198;9.904;2023-11-19T03:44:28;99863.75;;;8.48;100.00
16255;BME280;8235;52.198;9.904;2023-11-19T03:46:55;99876.53;;;8.56;100.00
16255;BME280;8235;52.198;9.904;2023-11-19T03:49:21;99869.22;;;8.59;100.00
16255;BME280;8235;52.198;9.904;2023-11-19T03:51:49;99875.13;;;8.63;100.00
16255;BME280;8235;52.198;9.904;2023-11-19T03:54:17;99874.09;;;8.65;100.00
16255;BME280;8235;52.198;9.904;2023-11-19T03:56:43;99853.59;;;8.67;100.00
16255;BME280;8235;52.198;9.904;2023-11-19T03:59:09;99849.69;;;8.73;100.00
16255;BME280;8235;52.198;9.904;2023-11-19T04:01:36;99827.28;;;8.77;100.00
16255;BME280;8235;52.198;9.904;2023-11-19T04:04:03;99834.50;;;8.75;100.00
16255;BME280;8235;52.198;9.904;2023-11-19T04:06:30;99830.66;;;8.79;100.00
16255;BME280;8235;52.198;9.904;2023-11-19T04:08:56;99826.09;;;8.81;100.00
16255;BME280;8235;52.198;9.904;2023-11-19T04:11:24;99827.59;;;8.85;100.00
16255;BME280;8235;52.198;9.904;2023-11-19T04:13:51;99835.25;;;8.90;100.00
16255;BME280;8235;52.198;9.904;2023-11-19T04:16:17;99820.56;;;8.97;100.00
16255;BME280;8235;52.198;9.904;2023-11-19T04:18:44;99826.31;;;9.03;100.00
16255;BME280;8235;52.198;9.904;2023-11-19T04:21:10;99824.19;;;9.09;100.00
16255;BME280;8235;52.198;9.904;2023-11-19T04:23:37;99829.28;;;9.12;100.00
16255;BME280;8235;52.198;9.904;2023-11-19T04:26:04;99827.88;;;9.19;100.00
16255;BME280;8235;52.198;9.904;2023-11-19T04:28:33;99814.59;;;9.19;100.00
16255;BME280;8235;52.198;9.904;2023-11-19T04:30:59;99822.25;;;9.23;100.00
16255;BME280;8235;52.198;9.904;2023-11-19T04:33:26;99825.44;;;9.28;100.00
16255;BME280;8235;52.198;9.904;2023-11-19T04:35:52;99821.59;;;9.32;100.00
16255;BME280;8235;52.198;9.904;2023-11-19T04:38:19;99825.84;;;9.35;100.00
16255;BME280;8235;52.198;9.904;2023-11-19T04:40:45;99834.44;;;9.38;100.00
16255;BME280;8235;52.198;9.904;2023-11-19T04:43:11;99830.50;;;9.44;100.00
16255;BME280;8235;52.198;9.904;2023-11-19T04:45:40;99836.22;;;9.51;100.00
16255;BME280;8235;52.198;9.904;2023-11-19T04:48:06;99836.97;;;9.53;100.00
16255;BME280;8235;52.198;9.904;2023-11-19T04:50:34;99829.41;;;9.59;100.00
16255;BME280;8235;52.198;9.904;2023-11-19T04:53:00;99825.56;;;9.63;100.00
16255;BME280;8235;52.198;9.904;2023-11-19T04:55:28;99823.41;;;9.68;100.00
16255;BME280;8235;52.198;9.904;2023-11-19T04:57:54;99830.66;;;9.66;100.00
16255;BME280;8235;52.198;9.904;2023-11-19T05:00:21;99828.59;;;9.70;100.00
16255;BME280;8235;52.198;9.904;2023-11-19T05:02:49;99830.53;;;9.68;100.00
16255;BME280;8235;52.198;9.904;2023-11-19T05:05:16;99837.66;;;9.67;100.00
16255;BME280;8235;52.198;9.904;2023-11-19T05:07:42;99830.41;;;9.69;100.00
16255;BME280;8235;52.198;9.904;2023-11-19T05:10:09;99822.00;;;9.75;100.00
16255;BME280;8235;52.198;9.904;2023-11-19T05:12:36;99829.25;;;9.73;100.00
16255;BME280;8235;52.198;9.904;2023-11-19T05:15:03;99818.50;;;9.75;100.00
16255;BME280;8235;52.198;9.904;2023-11-19T05:17:29;99817.66;;;9.74;100.00
16255;BME280;8235;52.198;9.904;2023-11-19T05:19:58;99821.78;;;9.79;100.00
16255;BME280;8235;52.198;9.904;2023-11-19T05:22:24;99800.28;;;9.82;100.00
16255;BME280;8235;52.198;9.904;2023-11-19T05:24:51;99801.25;;;9.81;100.00
16255;BME280;8235;52.198;9.904;2023-11-19T05:27:17;99801.88;;;9.84;100.00
16255;BME280;8235;52.198;9.904;2023-11-19T05:29:44;99795.72;;;9.84;100.00
16255;BME280;8235;52.198;9.904;2023-11-19T05:32:10;99797.06;;;9.89;100.00
16255;BME280;8235;52.198;9.904;2023-11-19T05:34:37;99790.13;;;9.87;100.00
16255;BME280;8235;52.198;9.904;2023-11-19T05:37:05;99779.06;;;9.93;100.00
16255;BME280;8235;52.198;9.904;2023-11-19T05:39:32;99782.22;;;9.98;100.00
16255;BME280;8235;52.198;9.904;2023-11-19T05:41:58;99784.16;;;9.96;100.00
16255;BME280;8235;52.198;9.904;2023-11-19T05:44:25;99784.16;;;9.96;100.00
16255;BME280;8235;52.198;9.904;2023-11-19T05:46:51;99800.84;;;9.98;100.00
16255;BME280;8235;52.198;9.904;2023-11-19T05:49:18;99798.81;;;10.01;100.00
16255;BME280;8235;52.198;9.904;2023-11-19T05:51:44;99797.84;;;10.02;100.00
16255;BME280;8235;52.198;9.904;2023-11-19T05:54:12;99805.59;;;10.05;100.00
16255;BME280;8235;52.198;9.904;2023-11-19T05:56:39;99801.84;;;10.08;100.00
16255;BME280;8235;52.198;9.904;2023-11-19T05:59:06;99787.78;;;10.19;100.00
16255;BME280;8235;52.198;9.904;2023-11-19T06:01:40;99792.84;;;10.22;100.00
16255;BME280;8235;52.198;9.904;2023-11-19T06:04:07;99782.09;;;10.23;100.00
16255;BME280;8235;52.198;9.904;2023-11-19T06:06:33;99784.66;;;10.25;100.00
16255;BME280;8235;52.198;9.904;2023-11-19T06:09:00;99786.84;;;10.31;100.00
16255;BME280;8235;52.198;9.904;2023-11-19T06:11:33;99785.78;;;10.33;100.00
16255;BME280;8235;52.198;9.904;2023-11-19T06:14:01;99789.28;;;10.34;100.00
16255;BME280;8235;52.198;9.904;2023-11-19T06:16:28;99775.75;;;10.37;100.00
16255;BME280;8235;52.198;9.904;2023-11-19T06:18:54;99778.78;;;10.43;100.00
16255;BME280;8235;52.198;9.904;2023-11-19T06:21:21;99782.06;;;10.47;100.00
16255;BME280;8235;52.198;9.904;2023-11-19T06:23:47;99795.88;;;10.52;100.00
16255;BME280;8235;52.198;9.904;2023-11-19T06:26:14;99788.50;;;10.56;100.00
16255;BME280;8235;52.198;9.904;2023-11-19T06:28:42;99803.03;;;10.63;100.00
16255;BME280;8235;52.198;9.904;2023-11-19T06:31:08;99802.56;;;10.69;100.00
16255;BME280;8235;52.198;9.904;2023-11-19T06:33:35;99804.03;;;10.73;100.00
16255;BME280;8235;52.198;9.904;2023-11-19T06:36:01;99817.94;;;10.76;100.00
16255;BME280;8235;52.198;9.904;2023-11-19T06:38:28;99826.44;;;10.82;100.00
16255;BME280;8235;52.198;9.904;2023-11-19T06:40:54;99826.31;;;10.83;100.00
16255;BME280;8235;52.198;9.904;2023-11-19T06:43:21;99828.75;;;10.86;100.00
16255;BME280;8235;52.198;9.904;2023-11-19T06:45:49;99825.84;;;10.89;100.00
16255;BME280;8235;52.198;9.904;2023-11-19T06:48:15;99831.63;;;10.94;100.00
16255;BME280;8235;52.198;9.904;2023-11-19T06:50:42;99826.06;;;10.97;100.00
16255;BME280;8235;52.198;9.904;2023-11-19T06:53:09;99825.97;;;10.99;100.00
16255;BME280;8235;52.198;9.904;2023-11-19T06:55:35;99823.91;;;11.02;100.00
16255;BME280;8235;52.198;9.904;2023-11-19T06:58:02;99826.34;;;11.05;100.00
16255;BME280;8235;52.198;9.904;2023-11-19T07:00:28;99829.00;;;11.05;100.00
16255;BME280;8235;52.198;9.904;2023-11-19T07:02:59;99834.69;;;11.12;100.00
16255;BME280;8235;52.198;9.904;2023-11-19T07:05:28;99840.88;;;11.12;100.00
16255;BME280;8235;52.198;9.904;2023-11-19T07:07:55;99844.03;;;11.18;100.00
16255;BME280;8235;52.198;9.904;2023-11-19T07:10:21;99850.94;;;11.20;100.00
16255;BME280;8235;52.198;9.904;2023-11-19T07:12:48;99855.06;;;11.24;100.00
16255;BME280;8235;52.198;9.904;2023-11-19T07:15:15;99844.16;;;11.27;100.00
16255;BME280;8235;52.198;9.904;2023-11-19T07:17:42;99854.56;;;11.30;100.00
16255;BME280;8235;52.198;9.904;2023-11-19T07:20:12;99854.56;;;11.30;100.00
16255;BME280;8235;52.198;9.904;2023-11-19T07:22:42;99851.88;;;11.30;100.00
16255;BME280;8235;52.198;9.904;2023-11-19T07:25:10;99841.97;;;11.32;100.00
16255;BME280;8235;52.198;9.904;2023-11-19T07:27:37;99846.56;;;11.30;100.00
16255;BME280;8235;52.198;9.904;2023-11-19T07:30:05;99865.22;;;11.30;100.00
16255;BME280;8235;52.198;9.904;2023-11-19T07:32:32;99868.00;;;11.29;100.00
16255;BME280;8235;52.198;9.904;2023-11-19T07:34:58;99867.78;;;11.32;100.00
16255;BME280;8235;52.198;9.904;2023-11-19T07:37:26;99868.72;;;11.31;100.00
16255;BME280;8235;52.198;9.904;2023-11-19T07:39:53;99873.09;;;11.32;100.00
16255;BME280;8235;52.198;9.904;2023-11-19T07:42:19;99875.75;;;11.32;100.00
16255;BME280;8235;52.198;9.904;2023-11-19T07:44:46;99880.13;;;11.33;100.00
16255;BME280;8235;52.198;9.904;2023-11-19T07:47:12;99885.09;;;11.37;100.00
16255;BME280;8235;52.198;9.904;2023-11-19T07:49:39;99871.78;;;11.37;100.00
16255;BME280;8235;52.198;9.904;2023-11-19T07:52:05;99878.56;;;11.41;100.00
16255;BME280;8235;52.198;9.904;2023-11-19T07:54:33;99874.22;;;11.40;100.00
16255;BME280;8235;52.198;9.904;2023-11-19T07:57:00;99885.47;;;11.44;100.00
16255;BME280;8235;52.198;9.904;2023-11-19T07:59:26;99882.53;;;11.47;100.00
16255;BME280;8235;52.198;9.904;2023-11-19T08:01:53;99888.16;;;11.44;99.70
16255;BME280;8235;52.198;9.904;2023-11-19T08:04:19;99887.19;;;11.45;98.92
16255;BME280;8235;52.198;9.904;2023-11-19T08:06:46;99879.03;;;11.46;98.93
16255;BME280;8235;52.198;9.904;2023-11-19T08:09:12;99887.88;;;11.47;98.37
16255;BME280;8235;52.198;9.904;2023-11-19T08:11:41;99879.66;;;11.50;97.88
16255;BME280;8235;52.198;9.904;2023-11-19T08:14:08;99892.00;;;11.51;97.77
16255;BME280;8235;52.198;9.904;2023-11-19T08:16:34;99878.44;;;11.54;97.43
16255;BME280;8235;52.198;9.904;2023-11-19T08:19:01;99874.81;;;11.55;97.06
16255;BME280;8235;52.198;9.904;2023-11-19T08:21:28;99881.84;;;11.56;96.49
16255;BME280;8235;52.198;9.904;2023-11-19T08:23:55;99880.13;;;11.55;96.08
16255;BME280;8235;52.198;9.904;2023-11-19T08:26:21;99890.91;;;11.54;96.39
16255;BME280;8235;52.198;9.904;2023-11-19T08:28:49;99887.41;;;11.53;95.44
16255;BME280;8235;52.198;9.904;2023-11-19T08:31:17;99896.25;;;11.54;95.36
16255;BME280;8235;52.198;9.904;2023-11-19T08:33:43;99905.09;;;11.54;95.73
16255;BME280;8235;52.198;9.904;2023-11-19T08:36:15;99903.16;;;11.56;94.86
16255;BME280;8235;52.198;9.904;2023-11-19T08:38:41;99905.72;;;11.58;95.35
16255;BME280;8235;52.198;9.904;2023-11-19T08:41:08;99913.97;;;11.55;94.91
16255;BME280;8235;52.198;9.904;2023-11-19T08:43:35;99905.09;;;11.54;94.50
16255;BME280;8235;52.198;9.904;2023-11-19T08:46:03;99907.78;;;11.54;94.40
16255;BME280;8235;52.198;9.904;2023-11-19T08:48:30;99893.72;;;11.52;94.00
16255;BME280;8235;52.198;9.904;2023-11-19T08:50:56;99901.59;;;11.54;94.28
16255;BME280;8235;52.198;9.904;2023-11-19T08:53:23;99901.22;;;11.58;93.75
16255;BME280;8235;52.198;9.904;2023-11-19T08:55:49;99902.94;;;11.59;94.45
16255;BME280;8235;52.198;9.904;2023-11-19T08:58:16;99903.53;;;11.63;94.25
16255;BME280;8235;52.198;9.904;2023-11-19T09:00:43;99909.56;;;11.65;93.49
16255;BME280;8235;52.198;9.904;2023-11-19T09:03:11;99920.00;;;11.68;94.04
16255;BME280;8235;52.198;9.904;2023-11-19T09:05:37;99917.84;;;11.73;93.99
16255;BME280;8235;52.198;9.904;2023-11-19T09:08:04;99925.84;;;11.73;93.99
16255;BME280;8235;52.198;9.904;2023-11-19T09:10:31;99909.63;;;11.76;94.17
16255;BME280;8235;52.198;9.904;2023-11-19T09:12:58;99911.53;;;11.74;94.59
16255;BME280;8235;52.198;9.904;2023-11-19T09:15:24;99916.00;;;11.73;94.44
16255;BME280;8235;52.198;9.904;2023-11-19T09:17:51;99920.84;;;11.68;94.39
16255;BME280;8235;52.198;9.904;2023-11-19T09:20:19;99926.44;;;11.65;94.22
16255;BME280;8235;52.198;9.904;2023-11-19T09:22:45;99931.91;;;11.64;94.15
16255;BME280;8235;52.198;9.904;2023-11-19T09:25:12;99927.44;;;11.64;94.54
16255;BME280;8235;52.198;9.904;2023-11-19T09:27:42;99933.47;;;11.66;94.07
16255;BME280;8235;52.198;9.904;2023-11-19T09:30:09;99941.72;;;11.63;93.15
16255;BME280;8235;52.198;9.904;2023-11-19T09:32:35;99948.03;;;11.62;93.63
16255;BME280;8235;52.198;9.904;2023-11-19T09:35:03;99945.38;;;11.62;93.65
16255;BME280;8235;52.198;9.904;2023-11-19T09:37:31;99936.53;;;11.62;93.00
16255;BME280;8235;52.198;9.904;2023-11-19T09:39:58;99952.63;;;11.60;93.65
16255;BME280;8235;52.198;9.904;2023-11-19T09:42:24;99954.22;;;11.63;92.83
16255;BME280;8235;52.198;9.904;2023-11-19T09:44:53;99950.69;;;11.62;92.74
16255;BME280;8235;52.198;9.904;2023-11-19T09:47:21;99948.03;;;11.62;93.21
16255;BME280;8235;52.198;9.904;2023-11-19T09:49:49;99946.34;;;11.61;93.07
16255;BME280;8235;52.198;9.904;2023-11-19T09:52:15;99948.75;;;11.64;93.77
16255;BME280;8235;52.198;9.904;2023-11-19T09:54:43;99943.16;;;11.67;93.79
16255;BME280;8235;52.198;9.904;2023-11-19T09:57:11;99945.09;;;11.65;93.73
16255;BME280;8235;52.198;9.904;2023-11-19T09:59:40;99934.44;;;11.65;93.31
16255;BME280;8235;52.198;9.904;2023-11-19T10:02:08;99933.09;;;11.71;93.69
16255;BME280;8235;52.198;9.904;2023-11-19T10:04:35;99948.25;;;11.70;92.61
16255;BME280;8235;52.198;9.904;2023-11-19T10:07:03;99940.13;;;11.72;93.31
16255;BME280;8235;52.198;9.904;2023-11-19T10:09:30;99945.34;;;11.73;92.58
16255;BME280;8235;52.198;9.904;2023-11-19T10:11:57;99939.47;;;11.81;92.34
16255;BME280;8235;52.198;9.904;2023-11-19T10:14:24;99941.97;;;11.82;91.77
16255;BME280;8235;52.198;9.904;2023-11-19T10:16:50;99930.09;;;11.87;91.08
16255;BME280;8235;52.198;9.904;2023-11-19T10:19:20;99945.75;;;11.91;90.45
16255;BME280;8235;52.198;9.904;2023-11-19T10:21:47;99948.28;;;11.93;90.68
16255;BME280;8235;52.198;9.904;2023-11-19T10:24:13;99957.03;;;11.95;90.79
16255;BME280;8235;52.198;9.904;2023-11-19T10:26:40;99950.84;;;11.94;90.51
16255;BME280;8235;52.198;9.904;2023-11-19T10:29:12;99964.06;;;11.96;91.07
16255;BME280;8235;52.198;9.904;2023-11-19T10:31:39;99959.69;;;11.95;89.90
16255;BME280;8235;52.198;9.904;2023-11-19T10:34:24;99952.78;;;11.92;89.23
16255;BME280;8235;52.198;9.904;2023-11-19T10:36:51;99959.44;;;11.87;89.12
16255;BME280;8235;52.198;9.904;2023-11-19T10:39:18;99964.06;;;11.85;89.49
16255;BME280;8235;52.198;9.904;2023-11-19T10:41:46;99945.66;;;11.81;90.66
16255;BME280;8235;52.198;9.904;2023-11-19T10:44:30;99957.28;;;11.80;90.71
16255;BME280;8235;52.198;9.904;2023-11-19T10:46:59;99951.53;;;11.74;91.76
16255;BME280;8235;52.198;9.904;2023-11-19T10:49:25;99951.53;;;11.74;91.96
16255;BME280;8235;52.198;9.904;2023-11-19T10:51:53;99947.19;;;11.73;92.26
16255;BME280;8235;52.198;9.904;2023-11-19T10:54:22;99944.97;;;11.67;92.54
16255;BME280;8235;52.198;9.904;2023-11-19T10:56:54;99944.25;;;11.65;93.15
16255;BME280;8235;52.198;9.904;2023-11-19T10:59:23;99947.06;;;11.63;93.39
16255;BME280;8235;52.198;9.904;2023-11-19T11:01:52;99946.91;;;11.65;93.49
16255;BME280;8235;52.198;9.904;2023-11-19T11:04:23;99944.53;;;11.62;93.10
16255;BME280;8235;52.198;9.904;2023-11-19T11:06:50;99945.47;;;11.61;93.47
16255;BME280;8235;52.198;9.904;2023-11-19T11:09:17;99937.47;;;11.61;93.43
16255;BME280;8235;52.198;9.904;2023-11-19T11:11:46;99936.41;;;11.63;93.17
16255;BME280;8235;52.198;9.904;2023-11-19T11:14:13;99936.53;;;11.62;93.58
16255;BME280;8235;52.198;9.904;2023-11-19T11:16:42;99941.47;;;11.66;93.78
16255;BME280;8235;52.198;9.904;2023-11-19T11:19:09;99932.63;;;11.66;94.17
16255;BME280;8235;52.198;9.904;2023-11-19T11:21:38;99935.28;;;11.66;93.83
16255;BME280;8235;52.198;9.904;2023-11-19T11:24:28;99935.16;;;11.67;94.08
16255;BME280;8235;52.198;9.904;2023-11-19T11:27:11;99930.78;;;11.66;93.33
16255;BME280;8235;52.198;9.904;2023-11-19T11:29:50;99931.53;;;11.68;93.51
16255;BME280;8235;52.198;9.904;2023-11-19T11:32:26;99922.44;;;11.71;92.41
16255;BME280;8235;52.198;9.904;2023-11-19T11:35:30;99924.25;;;11.70;91.70
16255;BME280;8235;52.198;9.904;2023-11-19T11:38:06;99929.34;;;11.73;91.00
16255;BME280;8235;52.198;9.904;2023-11-19T11:40:32;99928.19;;;11.77;90.32
16255;BME280;8235;52.198;9.904;2023-11-19T11:42:59;99934.81;;;11.83;90.06
16255;BME280;8235;52.198;9.904;2023-11-19T11:45:37;99934.47;;;11.88;90.32
16255;BME280;8235;52.198;9.904;2023-11-19T11:48:11;99926.22;;;11.91;90.26
16255;BME280;8235;52.198;9.904;2023-11-19T11:50:51;99931.81;;;11.99;90.24
16255;BME280;8235;52.198;9.904;2023-11-19T11:53:19;99937.72;;;12.02;89.24
16255;BME280;8235;52.198;9.904;2023-11-19T11:55:55;99927.88;;;12.03;88.08
16255;BME280;8235;52.198;9.904;2023-11-19T11:58:29;99923.16;;;12.06;88.18
16255;BME280;8235;52.198;9.904;2023-11-19T12:00:58;99931.03;;;12.08;88.45
16255;BME280;8235;52.198;9.904;2023-11-19T12:03:28;99918.31;;;12.11;88.19
16255;BME280;8235;52.198;9.904;2023-11-19T12:05:55;99922.66;;;12.12;86.77
16255;BME280;8235;52.198;9.904;2023-11-19T12:08:28;99930.56;;;12.14;86.45
16255;BME280;8235;52.198;9.904;2023-11-19T12:10:57;99926.91;;;12.15;86.02
16255;BME280;8235;52.198;9.904;2023-11-19T12:13:24;99912.84;;;12.13;85.41
16255;BME280;8235;52.198;9.904;2023-11-19T12:16:13;99917.94;;;12.16;85.08
16255;BME280;8235;52.198;9.904;2023-11-19T12:18:40;99923.00;;;12.19;85.39
16255;BME280;8235;52.198;9.904;2023-11-19T12:21:07;99917.41;;;12.22;84.85
16255;BME280;8235;52.198;9.904;2023-11-19T12:23:35;99923.34;;;12.26;85.12
16255;BME280;8235;52.198;9.904;2023-11-19T12:26:01;99926.88;;;12.26;84.33
16255;BME280;8235;52.198;9.904;2023-11-19T12:28:29;99923.97;;;12.29;84.25
16255;BME280;8235;52.198;9.904;2023-11-19T12:31:07;99929.66;;;12.36;84.28
16255;BME280;8235;52.198;9.904;2023-11-19T12:33:35;99926.59;;;12.40;84.39
16255;BME280;8235;52.198;9.904;2023-11-19T12:36:05;99924.50;;;12.44;84.72
16255;BME280;8235;52.198;9.904;2023-11-19T12:38:33;99927.78;;;12.47;84.55
16255;BME280;8235;52.198;9.904;2023-11-19T12:41:03;99928.63;;;12.48;83.97
16255;BME280;8235;52.198;9.904;2023-11-19T12:43:30;99929.50;;;12.48;83.67
16255;BME280;8235;52.198;9.904;2023-11-19T12:45:56;99938.34;;;12.49;83.92
16255;BME280;8235;52.198;9.904;2023-11-19T12:48:23;99925.84;;;12.49;83.88
16255;BME280;8235;52.198;9.904;2023-11-19T12:50:53;99932.03;;;12.50;83.92
16255;BME280;8235;52.198;9.904;2023-11-19T12:53:22;99924.16;;;12.48;82.68
16255;BME280;8235;52.198;9.904;2023-11-19T12:55:50;99920.63;;;12.48;82.97
16255;BME280;8235;52.198;9.904;2023-11-19T12:58:29;99922.44;;;12.47;81.02
16255;BME280;8235;52.198;9.904;2023-11-19T13:00:59;99929.00;;;12.43;81.06
16255;BME280;8235;52.198;9.904;2023-11-19T13:03:30;99922.81;;;12.43;81.22
16255;BME280;8235;52.198;9.904;2023-11-19T13:06:04;99924.75;;;12.41;82.54
16255;BME280;8235;52.198;9.904;2023-11-19T13:08:38;99922.22;;;12.39;83.60
16255;BME280;8235;52.198;9.904;2023-11-19T13:11:05;99917.13;;;12.36;84.91